sensor_id;sensor_type;location;lat;lon;timestamp;P1;durP1;ratioP1;P2;durP2;ratioP2
77166;SDS011;66141;7.324;79.980;2023-02-26T00:00:01;4.37;;;3.03;;
77166;SDS011;66141;7.324;79.980;2023-02-26T00:00:12;5.48;;;3.17;;
77166;SDS011;66141;7.324;79.980;2023-02-26T00:00:24;6.97;;;3.55;;
77166;SDS011;66141;7.324;79.980;2023-02-26T00:00:30;7.87;;;3.93;;
77166;SDS011;66141;7.324;79.980;2023-02-26T00:00:36;7.57;;;3.75;;
77166;SDS011;66141;7.324;79.980;2023-02-26T00:00:41;6.77;;;3.60;;
77166;SDS011;66141;7.324;79.980;2023-02-26T00:00:47;5.75;;;3.45;;
77166;SDS011;66141;7.324;79.980;2023-02-26T00:00:52;5.77;;;3.40;;
77166;SDS011;66141;7.324;79.980;2023-02-26T00:00:58;5.70;;;3.45;;
77166;SDS011;66141;7.324;79.980;2023-02-26T00:01:13;4.53;;;3.05;;
77166;SDS011;66141;7.324;79.980;2023-02-26T00:01:21;4.88;;;3.05;;
77166;SDS011;66141;7.324;79.980;2023-02-26T00:01:28;5.08;;;3.14;;
77166;SDS011;66141;7.324;79.980;2023-02-26T00:01:34;4.80;;;3.20;;
77166;SDS011;66141;7.324;79.980;2023-02-26T00:01:41;4.58;;;3.35;;
77166;SDS011;66141;7.324;79.980;2023-02-26T00:01:47;3.70;;;3.10;;
77166;SDS011;66141;7.324;79.980;2023-02-26T00:01:53;4.00;;;3.22;;
77166;SDS011;66141;7.324;79.980;2023-02-26T00:02:02;3.81;;;2.91;;
77166;SDS011;66141;7.324;79.980;2023-02-26T00:02:08;4.10;;;2.90;;
77166;SDS011;66141;7.324;79.980;2023-02-26T00:02:14;4.60;;;3.17;;
77166;SDS011;66141;7.324;79.980;2023-02-26T00:02:20;4.38;;;3.08;;
77166;SDS011;66141;7.324;79.980;2023-02-26T00:02:26;4.17;;;2.97;;
77166;SDS011;66141;7.324;79.980;2023-02-26T00:02:31;5.10;;;3.08;;
77166;SDS011;66141;7.324;79.980;2023-02-26T00:02:37;5.22;;;3.00;;
77166;SDS011;66141;7.324;79.980;2023-02-26T00:02:43;4.93;;;2.67;;
77166;SDS011;66141;7.324;79.980;2023-02-26T00:02:52;4.67;;;2.50;;
77166;SDS011;66141;7.324;79.980;2023-02-26T00:02:57;4.63;;;2.47;;
77166;SDS011;66141;7.324;79.980;2023-02-26T00:03:03;4.20;;;2.70;;
77166;SDS011;66141;7.324;79.980;2023-02-26T00:03:09;4.40;;;3.00;;
77166;SDS011;66141;7.324;79.980;2023-02-26T00:03:14;4.65;;;3.22;;
77166;SDS011;66141;7.324;79.980;2023-02-26T00:03:20;4.60;;;3.50;;
77166;SDS011;66141;7.324;79.980;2023-02-26T00:03:26;4.78;;;3.75;;
77166;SDS011;66141;7.324;79.980;2023-02-26T00:03:31;5.22;;;3.63;;
77166;SDS011;66141;7.324;79.980;2023-02-26T00:03:37;4.80;;;3.47;;
77166;SDS011;66141;7.324;79.980;2023-02-26T00:03:43;5.07;;;3.42;;
77166;SDS011;66141;7.324;79.980;2023-02-26T00:03:49;6.35;;;3.78;;
77166;SDS011;66141;7.324;79.980;2023-02-26T00:03:56;6.43;;;3.57;;
77166;SDS011;66141;7.324;79.980;2023-02-26T00:04:02;5.70;;;3.40;;
77166;SDS011;66141;7.324;79.980;2023-02-26T00:04:08;5.40;;;3.20;;
77166;SDS011;66141;7.324;79.980;2023-02-26T00:04:14;4.27;;;3.03;;
77166;SDS011;66141;7.324;79.980;2023-02-26T00:04:20;3.63;;;2.67;;
77166;SDS011;66141;7.324;79.980;2023-02-26T00:04:26;3.97;;;2.85;;
77166;SDS011;66141;7.324;79.980;2023-02-26T00:04:31;4.13;;;2.93;;
77166;SDS011;66141;7.324;79.980;2023-02-26T00:04:37;3.92;;;2.75;;
77166;SDS011;66141;7.324;79.980;2023-02-26T00:04:42;4.50;;;3.03;;
77166;SDS011;66141;7.324;79.980;2023-02-26T00:04:48;4.43;;;2.90;;
77166;SDS011;66141;7.324;79.980;2023-02-26T00:04:54;3.65;;;2.58;;
77166;SDS011;66141;7.324;79.980;2023-02-26T00:04:59;3.07;;;2.30;;
77166;SDS011;66141;7.324;79.980;2023-02-26T00:05:05;3.17;;;2.38;;
77166;SDS011;66141;7.324;79.980;2023-02-26T00:05:11;3.28;;;2.35;;
77166;SDS011;66141;7.324;79.980;2023-02-26T00:05:17;3.92;;;2.58;;
77166;SDS011;66141;7.324;79.980;2023-02-26T00:05:22;4.13;;;2.67;;
77166;SDS011;66141;7.324;79.980;2023-02-26T00:05:28;4.60;;;2.95;;
77166;SDS011;66141;7.324;79.980;2023-02-26T00:05:34;5.03;;;3.28;;
77166;SDS011;66141;7.324;79.980;2023-02-26T00:05:40;4.47;;;3.00;;
77166;SDS011;66141;7.324;79.980;2023-02-26T00:05:45;3.93;;;3.00;;
77166;SDS011;66141;7.324;79.980;2023-02-26T00:05:51;3.92;;;2.88;;
77166;SDS011;66141;7.324;79.980;2023-02-26T00:05:59;4.13;;;2.80;;
77166;SDS011;66141;7.324;79.980;2023-02-26T00:06:05;4.14;;;2.59;;
77166;SDS011;66141;7.324;79.980;2023-02-26T00:06:11;4.80;;;2.70;;
77166;SDS011;66141;7.324;79.980;2023-02-26T00:06:17;4.80;;;2.67;;
77166;SDS011;66141;7.324;79.980;2023-02-26T00:06:23;5.13;;;3.17;;
77166;SDS011;66141;7.324;79.980;2023-02-26T00:06:30;5.14;;;3.52;;
77166;SDS011;66141;7.324;79.980;2023-02-26T00:06:37;5.40;;;3.47;;
77166;SDS011;66141;7.324;79.980;2023-02-26T00:06:43;5.00;;;3.23;;
77166;SDS011;66141;7.324;79.980;2023-02-26T00:06:59;4.53;;;2.84;;
77166;SDS011;66141;7.324;79.980;2023-02-26T00:07:05;4.07;;;2.97;;
77166;SDS011;66141;7.324;79.980;2023-02-26T00:07:11;4.20;;;3.20;;
77166;SDS011;66141;7.324;79.980;2023-02-26T00:07:16;4.72;;;3.38;;
77166;SDS011;66141;7.324;79.980;2023-02-26T00:07:22;4.57;;;3.30;;
77166;SDS011;66141;7.324;79.980;2023-02-26T00:07:27;4.57;;;3.22;;
77166;SDS011;66141;7.324;79.980;2023-02-26T00:07:33;5.13;;;3.15;;
77166;SDS011;66141;7.324;79.980;2023-02-26T00:07:39;5.53;;;3.13;;
77166;SDS011;66141;7.324;79.980;2023-02-26T00:07:45;5.10;;;2.90;;
77166;SDS011;66141;7.324;79.980;2023-02-26T00:07:50;4.97;;;3.00;;
77166;SDS011;66141;7.324;79.980;2023-02-26T00:07:57;5.30;;;2.97;;
77166;SDS011;66141;7.324;79.980;2023-02-26T00:08:03;4.94;;;2.96;;
77166;SDS011;66141;7.324;79.980;2023-02-26T00:08:10;4.40;;;3.07;;
77166;SDS011;66141;7.324;79.980;2023-02-26T00:08:15;4.63;;;3.38;;
77166;SDS011;66141;7.324;79.980;2023-02-26T00:08:21;4.73;;;3.50;;
77166;SDS011;66141;7.324;79.980;2023-02-26T00:08:27;4.43;;;3.60;;
77166;SDS011;66141;7.324;79.980;2023-02-26T00:08:32;3.78;;;3.33;;
77166;SDS011;66141;7.324;79.980;2023-02-26T00:08:38;3.67;;;3.13;;
77166;SDS011;66141;7.324;79.980;2023-02-26T00:08:44;3.70;;;3.08;;
77166;SDS011;66141;7.324;79.980;2023-02-26T00:08:49;3.87;;;3.07;;
77166;SDS011;66141;7.324;79.980;2023-02-26T00:08:55;4.68;;;3.22;;
77166;SDS011;66141;7.324;79.980;2023-02-26T00:09:01;5.55;;;3.50;;
77166;SDS011;66141;7.324;79.980;2023-02-26T00:09:07;5.84;;;3.74;;
77166;SDS011;66141;7.324;79.980;2023-02-26T00:09:13;6.37;;;3.90;;
77166;SDS011;66141;7.324;79.980;2023-02-26T00:09:19;6.68;;;3.85;;
77166;SDS011;66141;7.324;79.980;2023-02-26T00:09:25;6.30;;;3.60;;
77166;SDS011;66141;7.324;79.980;2023-02-26T00:09:31;6.18;;;3.44;;
77166;SDS011;66141;7.324;79.980;2023-02-26T00:09:36;5.77;;;3.17;;
77166;SDS011;66141;7.324;79.980;2023-02-26T00:09:42;5.47;;;2.83;;
77166;SDS011;66141;7.324;79.980;2023-02-26T00:09:48;5.05;;;2.75;;
77166;SDS011;66141;7.324;79.980;2023-02-26T00:09:53;6.97;;;3.03;;
77166;SDS011;66141;7.324;79.980;2023-02-26T00:09:59;6.38;;;2.92;;
77166;SDS011;66141;7.324;79.980;2023-02-26T00:10:08;6.51;;;3.16;;
77166;SDS011;66141;7.324;79.980;2023-02-26T00:10:15;7.33;;;3.63;;
77166;SDS011;66141;7.324;79.980;2023-02-26T00:10:20;6.90;;;3.70;;
77166;SDS011;66141;7.324;79.980;2023-02-26T00:10:26;5.50;;;3.67;;
77166;SDS011;66141;7.324;79.980;2023-02-26T00:10:32;5.53;;;3.67;;
77166;SDS011;66141;7.324;79.980;2023-02-26T00:10:37;5.65;;;3.65;;
77166;SDS011;66141;7.324;79.980;2023-02-26T00:10:43;5.68;;;3.63;;
77166;SDS011;66141;7.324;79.980;2023-02-26T00:10:49;4.63;;;3.33;;
77166;SDS011;66141;7.324;79.980;2023-02-26T00:10:54;4.45;;;3.17;;
77166;SDS011;66141;7.324;79.980;2023-02-26T00:11:01;4.83;;;3.33;;
77166;SDS011;66141;7.324;79.980;2023-02-26T00:11:10;5.72;;;3.57;;
77166;SDS011;66141;7.324;79.980;2023-02-26T00:11:16;6.50;;;3.55;;
77166;SDS011;66141;7.324;79.980;2023-02-26T00:11:21;7.07;;;3.78;;
77166;SDS011;66141;7.324;79.980;2023-02-26T00:11:27;7.45;;;3.90;;
77166;SDS011;66141;7.324;79.980;2023-02-26T00:11:33;7.10;;;3.67;;
77166;SDS011;66141;7.324;79.980;2023-02-26T00:11:38;7.30;;;3.63;;
77166;SDS011;66141;7.324;79.980;2023-02-26T00:11:44;6.90;;;3.67;;
77166;SDS011;66141;7.324;79.980;2023-02-26T00:11:50;6.40;;;3.55;;
77166;SDS011;66141;7.324;79.980;2023-02-26T00:11:57;6.43;;;3.40;;
77166;SDS011;66141;7.324;79.980;2023-02-26T00:12:02;6.57;;;3.40;;
77166;SDS011;66141;7.324;79.980;2023-02-26T00:12:11;5.88;;;3.42;;
77166;SDS011;66141;7.324;79.980;2023-02-26T00:12:17;5.85;;;3.12;;
77166;SDS011;66141;7.324;79.980;2023-02-26T00:12:22;6.60;;;3.28;;
77166;SDS011;66141;7.324;79.980;2023-02-26T00:12:28;6.05;;;3.38;;
77166;SDS011;66141;7.324;79.980;2023-02-26T00:12:35;5.90;;;3.47;;
77166;SDS011;66141;7.324;79.980;2023-02-26T00:12:41;5.60;;;3.22;;
77166;SDS011;66141;7.324;79.980;2023-02-26T00:12:47;4.70;;;3.07;;
77166;SDS011;66141;7.324;79.980;2023-02-26T00:12:52;4.38;;;2.95;;
77166;SDS011;66141;7.324;79.980;2023-02-26T00:12:58;4.23;;;2.80;;
77166;SDS011;66141;7.324;79.980;2023-02-26T00:13:04;4.05;;;2.65;;
77166;SDS011;66141;7.324;79.980;2023-02-26T00:13:10;3.92;;;2.58;;
77166;SDS011;66141;7.324;79.980;2023-02-26T00:13:16;4.43;;;2.80;;
77166;SDS011;66141;7.324;79.980;2023-02-26T00:13:21;4.00;;;2.55;;
77166;SDS011;66141;7.324;79.980;2023-02-26T00:13:28;3.90;;;2.50;;
77166;SDS011;66141;7.324;79.980;2023-02-26T00:13:35;3.57;;;2.50;;
77166;SDS011;66141;7.324;79.980;2023-02-26T00:13:41;3.84;;;2.62;;
77166;SDS011;66141;7.324;79.980;2023-02-26T00:13:47;4.13;;;2.75;;
77166;SDS011;66141;7.324;79.980;2023-02-26T00:13:53;4.30;;;2.88;;
77166;SDS011;66141;7.324;79.980;2023-02-26T00:13:59;4.63;;;3.13;;
77166;SDS011;66141;7.324;79.980;2023-02-26T00:14:05;4.57;;;3.00;;
77166;SDS011;66141;7.324;79.980;2023-02-26T00:14:11;4.95;;;3.33;;
77166;SDS011;66141;7.324;79.980;2023-02-26T00:14:18;5.22;;;3.44;;
77166;SDS011;66141;7.324;79.980;2023-02-26T00:14:24;5.30;;;3.33;;
77166;SDS011;66141;7.324;79.980;2023-02-26T00:14:30;5.45;;;3.33;;
77166;SDS011;66141;7.324;79.980;2023-02-26T00:14:35;6.45;;;3.60;;
77166;SDS011;66141;7.324;79.980;2023-02-26T00:14:41;5.97;;;3.25;;
77166;SDS011;66141;7.324;79.980;2023-02-26T00:14:47;5.77;;;3.10;;
77166;SDS011;66141;7.324;79.980;2023-02-26T00:14:52;5.57;;;3.20;;
77166;SDS011;66141;7.324;79.980;2023-02-26T00:14:58;5.20;;;3.00;;
77166;SDS011;66141;7.324;79.980;2023-02-26T00:15:04;4.78;;;2.90;;
77166;SDS011;66141;7.324;79.980;2023-02-26T00:15:11;4.65;;;2.75;;
77166;SDS011;66141;7.324;79.980;2023-02-26T00:15:19;4.37;;;2.67;;
77166;SDS011;66141;7.324;79.980;2023-02-26T00:15:25;4.78;;;2.83;;
77166;SDS011;66141;7.324;79.980;2023-02-26T00:15:31;6.23;;;3.00;;
77166;SDS011;66141;7.324;79.980;2023-02-26T00:15:36;5.90;;;2.95;;
77166;SDS011;66141;7.324;79.980;2023-02-26T00:15:42;6.38;;;3.15;;
77166;SDS011;66141;7.324;79.980;2023-02-26T00:15:51;7.00;;;3.38;;
77166;SDS011;66141;7.324;79.980;2023-02-26T00:16:00;6.35;;;3.50;;
77166;SDS011;66141;7.324;79.980;2023-02-26T00:16:31;4.46;;;3.33;;
77166;SDS011;66141;7.324;79.980;2023-02-26T00:16:37;4.20;;;3.26;;
77166;SDS011;66141;7.324;79.980;2023-02-26T00:16:43;4.68;;;3.42;;
77166;SDS011;66141;7.324;79.980;2023-02-26T00:17:25;5.54;;;3.45;;
77166;SDS011;66141;7.324;79.980;2023-02-26T00:17:47;7.11;;;4.06;;
77166;SDS011;66141;7.324;79.980;2023-02-26T00:17:57;7.16;;;3.84;;
77166;SDS011;66141;7.324;79.980;2023-02-26T00:18:05;7.54;;;3.67;;
77166;SDS011;66141;7.324;79.980;2023-02-26T00:18:12;7.42;;;3.80;;
77166;SDS011;66141;7.324;79.980;2023-02-26T00:18:20;7.03;;;3.67;;
77166;SDS011;66141;7.324;79.980;2023-02-26T00:18:25;6.03;;;3.80;;
77166;SDS011;66141;7.324;79.980;2023-02-26T00:18:31;5.93;;;3.78;;
77166;SDS011;66141;7.324;79.980;2023-02-26T00:18:37;6.88;;;4.07;;
77166;SDS011;66141;7.324;79.980;2023-02-26T00:18:43;6.53;;;4.00;;
77166;SDS011;66141;7.324;79.980;2023-02-26T00:18:48;6.37;;;4.00;;
77166;SDS011;66141;7.324;79.980;2023-02-26T00:18:55;6.07;;;3.95;;
77166;SDS011;66141;7.324;79.980;2023-02-26T00:19:03;5.63;;;3.97;;
77166;SDS011;66141;7.324;79.980;2023-02-26T00:19:09;4.62;;;3.78;;
77166;SDS011;66141;7.324;79.980;2023-02-26T00:19:15;4.64;;;3.66;;
77166;SDS011;66141;7.324;79.980;2023-02-26T00:19:21;5.18;;;3.88;;
77166;SDS011;66141;7.324;79.980;2023-02-26T00:19:27;5.03;;;3.75;;
77166;SDS011;66141;7.324;79.980;2023-02-26T00:19:33;6.00;;;3.80;;
77166;SDS011;66141;7.324;79.980;2023-02-26T00:19:39;6.87;;;3.90;;
77166;SDS011;66141;7.324;79.980;2023-02-26T00:19:44;7.00;;;3.90;;
77166;SDS011;66141;7.324;79.980;2023-02-26T00:19:50;6.60;;;3.78;;
77166;SDS011;66141;7.324;79.980;2023-02-26T00:19:56;6.23;;;3.57;;
77166;SDS011;66141;7.324;79.980;2023-02-26T00:20:02;5.55;;;3.45;;
77166;SDS011;66141;7.324;79.980;2023-02-26T00:20:09;4.26;;;3.06;;
77166;SDS011;66141;7.324;79.980;2023-02-26T00:20:16;4.40;;;3.20;;
77166;SDS011;66141;7.324;79.980;2023-02-26T00:20:22;6.40;;;3.17;;
77166;SDS011;66141;7.324;79.980;2023-02-26T00:20:28;6.82;;;3.13;;
77166;SDS011;66141;7.324;79.980;2023-02-26T00:20:34;6.88;;;3.17;;
77166;SDS011;66141;7.324;79.980;2023-02-26T00:20:40;7.52;;;3.16;;
77166;SDS011;66141;7.324;79.980;2023-02-26T00:20:48;7.10;;;3.07;;
77166;SDS011;66141;7.324;79.980;2023-02-26T00:20:54;7.15;;;3.45;;
77166;SDS011;66141;7.324;79.980;2023-02-26T00:20:59;7.95;;;3.70;;
77166;SDS011;66141;7.324;79.980;2023-02-26T00:21:05;8.43;;;3.73;;
77166;SDS011;66141;7.324;79.980;2023-02-26T00:21:18;9.38;;;4.25;;
77166;SDS011;66141;7.324;79.980;2023-02-26T00:21:25;10.14;;;4.07;;
77166;SDS011;66141;7.324;79.980;2023-02-26T00:21:31;9.38;;;4.00;;
77166;SDS011;66141;7.324;79.980;2023-02-26T00:21:37;9.23;;;4.20;;
77166;SDS011;66141;7.324;79.980;2023-02-26T00:21:43;7.20;;;3.83;;
77166;SDS011;66141;7.324;79.980;2023-02-26T00:21:48;6.35;;;4.03;;
77166;SDS011;66141;7.324;79.980;2023-02-26T00:21:54;5.72;;;4.03;;
77166;SDS011;66141;7.324;79.980;2023-02-26T00:22:00;5.63;;;3.67;;
77166;SDS011;66141;7.324;79.980;2023-02-26T00:22:06;5.25;;;3.50;;
77166;SDS011;66141;7.324;79.980;2023-02-26T00:22:12;5.20;;;3.40;;
77166;SDS011;66141;7.324;79.980;2023-02-26T00:22:18;4.97;;;3.25;;
77166;SDS011;66141;7.324;79.980;2023-02-26T00:22:23;5.17;;;3.10;;
77166;SDS011;66141;7.324;79.980;2023-02-26T00:22:29;5.07;;;3.10;;
77166;SDS011;66141;7.324;79.980;2023-02-26T00:22:35;4.57;;;3.00;;
77166;SDS011;66141;7.324;79.980;2023-02-26T00:22:41;5.18;;;2.88;;
77166;SDS011;66141;7.324;79.980;2023-02-26T00:22:47;5.70;;;3.05;;
77166;SDS011;66141;7.324;79.980;2023-02-26T00:22:52;5.37;;;3.07;;
77166;SDS011;66141;7.324;79.980;2023-02-26T00:22:58;5.40;;;3.20;;
77166;SDS011;66141;7.324;79.980;2023-02-26T00:23:04;5.47;;;3.35;;
77166;SDS011;66141;7.324;79.980;2023-02-26T00:23:11;6.07;;;3.50;;
77166;SDS011;66141;7.324;79.980;2023-02-26T00:23:18;6.02;;;3.62;;
77166;SDS011;66141;7.324;79.980;2023-02-26T00:23:24;7.22;;;3.78;;
77166;SDS011;66141;7.324;79.980;2023-02-26T00:23:30;6.87;;;3.77;;
77166;SDS011;66141;7.324;79.980;2023-02-26T00:23:35;6.85;;;3.83;;
77166;SDS011;66141;7.324;79.980;2023-02-26T00:23:41;5.90;;;3.75;;
77166;SDS011;66141;7.324;79.980;2023-02-26T00:23:47;6.13;;;3.77;;
77166;SDS011;66141;7.324;79.980;2023-02-26T00:23:52;5.18;;;3.83;;
77166;SDS011;66141;7.324;79.980;2023-02-26T00:23:58;5.78;;;3.97;;
77166;SDS011;66141;7.324;79.980;2023-02-26T00:24:07;6.37;;;3.77;;
77166;SDS011;66141;7.324;79.980;2023-02-26T00:24:13;6.17;;;3.70;;
77166;SDS011;66141;7.324;79.980;2023-02-26T00:24:18;5.63;;;3.58;;
77166;SDS011;66141;7.324;79.980;2023-02-26T00:24:24;5.15;;;3.22;;
77166;SDS011;66141;7.324;79.980;2023-02-26T00:24:29;4.33;;;2.97;;
77166;SDS011;66141;7.324;79.980;2023-02-26T00:24:35;3.92;;;3.00;;
77166;SDS011;66141;7.324;79.980;2023-02-26T00:24:41;4.17;;;3.00;;
77166;SDS011;66141;7.324;79.980;2023-02-26T00:24:46;5.07;;;2.95;;
77166;SDS011;66141;7.324;79.980;2023-02-26T00:24:52;4.93;;;2.90;;
77166;SDS011;66141;7.324;79.980;2023-02-26T00:24:57;6.00;;;3.25;;
77166;SDS011;66141;7.324;79.980;2023-02-26T00:25:03;6.95;;;3.40;;
77166;SDS011;66141;7.324;79.980;2023-02-26T00:25:09;7.10;;;3.50;;
77166;SDS011;66141;7.324;79.980;2023-02-26T00:25:16;6.42;;;3.70;;
77166;SDS011;66141;7.324;79.980;2023-02-26T00:25:21;6.35;;;3.80;;
77166;SDS011;66141;7.324;79.980;2023-02-26T00:25:27;5.32;;;3.45;;
77166;SDS011;66141;7.324;79.980;2023-02-26T00:25:33;4.97;;;3.43;;
77166;SDS011;66141;7.324;79.980;2023-02-26T00:25:39;5.38;;;3.67;;
77166;SDS011;66141;7.324;79.980;2023-02-26T00:25:45;5.17;;;3.50;;
77166;SDS011;66141;7.324;79.980;2023-02-26T00:25:50;5.00;;;3.35;;
77166;SDS011;66141;7.324;79.980;2023-02-26T00:25:56;4.97;;;3.40;;
77166;SDS011;66141;7.324;79.980;2023-02-26T00:26:02;6.03;;;3.42;;
77166;SDS011;66141;7.324;79.980;2023-02-26T00:26:08;5.35;;;3.13;;
77166;SDS011;66141;7.324;79.980;2023-02-26T00:26:14;5.00;;;3.10;;
77166;SDS011;66141;7.324;79.980;2023-02-26T00:26:19;4.95;;;3.20;;
77166;SDS011;66141;7.324;79.980;2023-02-26T00:26:25;4.78;;;3.03;;
77166;SDS011;66141;7.324;79.980;2023-02-26T00:26:32;4.40;;;3.05;;
77166;SDS011;66141;7.324;79.980;2023-02-26T00:26:38;4.90;;;3.10;;
77166;SDS011;66141;7.324;79.980;2023-02-26T00:26:43;5.18;;;3.17;;
77166;SDS011;66141;7.324;79.980;2023-02-26T00:26:49;5.40;;;3.10;;
77166;SDS011;66141;7.324;79.980;2023-02-26T00:26:55;5.63;;;3.27;;
77166;SDS011;66141;7.324;79.980;2023-02-26T00:27:01;4.88;;;3.20;;
77166;SDS011;66141;7.324;79.980;2023-02-26T00:27:06;4.70;;;3.10;;
77166;SDS011;66141;7.324;79.980;2023-02-26T00:27:12;4.95;;;3.03;;
77166;SDS011;66141;7.324;79.980;2023-02-26T00:27:18;5.00;;;3.22;;
77166;SDS011;66141;7.324;79.980;2023-02-26T00:27:24;5.70;;;3.72;;
77166;SDS011;66141;7.324;79.980;2023-02-26T00:27:29;5.97;;;3.90;;
77166;SDS011;66141;7.324;79.980;2023-02-26T00:27:35;5.68;;;3.90;;
77166;SDS011;66141;7.324;79.980;2023-02-26T00:27:41;5.05;;;3.97;;
77166;SDS011;66141;7.324;79.980;2023-02-26T00:27:48;4.82;;;3.76;;
77166;SDS011;66141;7.324;79.980;2023-02-26T00:27:54;4.30;;;3.17;;
77166;SDS011;66141;7.324;79.980;2023-02-26T00:28:00;4.10;;;3.17;;
77166;SDS011;66141;7.324;79.980;2023-02-26T00:28:06;4.32;;;3.15;;
77166;SDS011;66141;7.324;79.980;2023-02-26T00:28:12;4.57;;;3.17;;
77166;SDS011;66141;7.324;79.980;2023-02-26T00:28:18;4.74;;;3.34;;
77166;SDS011;66141;7.324;79.980;2023-02-26T00:28:23;4.63;;;3.30;;
77166;SDS011;66141;7.324;79.980;2023-02-26T00:28:29;4.53;;;3.20;;
77166;SDS011;66141;7.324;79.980;2023-02-26T00:28:35;4.40;;;2.97;;
77166;SDS011;66141;7.324;79.980;2023-02-26T00:28:41;4.65;;;3.03;;
77166;SDS011;66141;7.324;79.980;2023-02-26T00:28:47;4.43;;;2.77;;
77166;SDS011;66141;7.324;79.980;2023-02-26T00:28:53;4.63;;;2.78;;
77166;SDS011;66141;7.324;79.980;2023-02-26T00:28:59;5.28;;;3.15;;
77166;SDS011;66141;7.324;79.980;2023-02-26T00:29:04;5.70;;;3.25;;
77166;SDS011;66141;7.324;79.980;2023-02-26T00:29:10;5.68;;;3.30;;
77166;SDS011;66141;7.324;79.980;2023-02-26T00:29:16;6.77;;;3.63;;
77166;SDS011;66141;7.324;79.980;2023-02-26T00:29:22;7.03;;;3.72;;
77166;SDS011;66141;7.324;79.980;2023-02-26T00:29:27;6.75;;;3.58;;
77166;SDS011;66141;7.324;79.980;2023-02-26T00:29:33;6.10;;;3.42;;
77166;SDS011;66141;7.324;79.980;2023-02-26T00:29:39;5.77;;;3.40;;
77166;SDS011;66141;7.324;79.980;2023-02-26T00:29:45;5.07;;;3.22;;
77166;SDS011;66141;7.324;79.980;2023-02-26T00:29:51;4.72;;;3.17;;
77166;SDS011;66141;7.324;79.980;2023-02-26T00:29:56;4.45;;;3.10;;
77166;SDS011;66141;7.324;79.980;2023-02-26T00:30:03;4.38;;;3.13;;
77166;SDS011;66141;7.324;79.980;2023-02-26T00:30:09;4.72;;;3.40;;
77166;SDS011;66141;7.324;79.980;2023-02-26T00:30:15;5.18;;;3.60;;
77166;SDS011;66141;7.324;79.980;2023-02-26T00:30:21;4.57;;;3.40;;
77166;SDS011;66141;7.324;79.980;2023-02-26T00:30:27;4.06;;;3.02;;
77166;SDS011;66141;7.324;79.980;2023-02-26T00:30:33;4.37;;;3.03;;
77166;SDS011;66141;7.324;79.980;2023-02-26T00:30:39;4.20;;;2.80;;
77166;SDS011;66141;7.324;79.980;2023-02-26T00:30:45;4.25;;;2.72;;
77166;SDS011;66141;7.324;79.980;2023-02-26T00:30:51;5.78;;;3.05;;
77166;SDS011;66141;7.324;79.980;2023-02-26T00:30:56;6.53;;;3.33;;
77166;SDS011;66141;7.324;79.980;2023-02-26T00:31:02;7.35;;;3.53;;
77166;SDS011;66141;7.324;79.980;2023-02-26T00:31:08;8.18;;;3.47;;
77166;SDS011;66141;7.324;79.980;2023-02-26T00:31:14;8.38;;;3.58;;
77166;SDS011;66141;7.324;79.980;2023-02-26T00:31:20;7.43;;;3.37;;
77166;SDS011;66141;7.324;79.980;2023-02-26T00:31:28;7.33;;;3.40;;
77166;SDS011;66141;7.324;79.980;2023-02-26T00:31:34;6.25;;;3.15;;
77166;SDS011;66141;7.324;79.980;2023-02-26T00:31:40;4.88;;;2.97;;
77166;SDS011;66141;7.324;79.980;2023-02-26T00:31:46;4.68;;;3.03;;
77166;SDS011;66141;7.324;79.980;2023-02-26T00:31:51;5.27;;;3.50;;
77166;SDS011;66141;7.324;79.980;2023-02-26T00:31:57;5.90;;;3.50;;
77166;SDS011;66141;7.324;79.980;2023-02-26T00:32:03;6.18;;;3.55;;
77166;SDS011;66141;7.324;79.980;2023-02-26T00:32:09;6.45;;;3.67;;
77166;SDS011;66141;7.324;79.980;2023-02-26T00:32:15;6.47;;;3.60;;
77166;SDS011;66141;7.324;79.980;2023-02-26T00:32:24;5.77;;;3.43;;
77166;SDS011;66141;7.324;79.980;2023-02-26T00:32:29;5.70;;;3.75;;
77166;SDS011;66141;7.324;79.980;2023-02-26T00:32:35;6.63;;;3.90;;
77166;SDS011;66141;7.324;79.980;2023-02-26T00:32:43;6.42;;;3.88;;
77166;SDS011;66141;7.324;79.980;2023-02-26T00:32:49;6.63;;;3.77;;
77166;SDS011;66141;7.324;79.980;2023-02-26T00:32:54;6.30;;;3.40;;
77166;SDS011;66141;7.324;79.980;2023-02-26T00:33:00;5.20;;;3.15;;
77166;SDS011;66141;7.324;79.980;2023-02-26T00:33:06;4.72;;;3.25;;
77166;SDS011;66141;7.324;79.980;2023-02-26T00:33:12;5.30;;;3.37;;
77166;SDS011;66141;7.324;79.980;2023-02-26T00:33:17;5.35;;;3.47;;
77166;SDS011;66141;7.324;79.980;2023-02-26T00:33:23;5.38;;;3.58;;
77166;SDS011;66141;7.324;79.980;2023-02-26T00:33:29;5.20;;;3.50;;
77166;SDS011;66141;7.324;79.980;2023-02-26T00:33:35;5.00;;;3.33;;
77166;SDS011;66141;7.324;79.980;2023-02-26T00:33:41;5.13;;;3.40;;
77166;SDS011;66141;7.324;79.980;2023-02-26T00:33:47;5.37;;;3.30;;
77166;SDS011;66141;7.324;79.980;2023-02-26T00:33:53;5.28;;;3.40;;
77166;SDS011;66141;7.324;79.980;2023-02-26T00:33:59;5.33;;;3.50;;
77166;SDS011;66141;7.324;79.980;2023-02-26T00:34:05;5.40;;;3.55;;
77166;SDS011;66141;7.324;79.980;2023-02-26T00:34:11;5.28;;;3.60;;
77166;SDS011;66141;7.324;79.980;2023-02-26T00:34:17;4.40;;;3.30;;
77166;SDS011;66141;7.324;79.980;2023-02-26T00:34:23;4.70;;;3.30;;
77166;SDS011;66141;7.324;79.980;2023-02-26T00:34:29;5.00;;;3.35;;
77166;SDS011;66141;7.324;79.980;2023-02-26T00:34:35;5.30;;;3.50;;
77166;SDS011;66141;7.324;79.980;2023-02-26T00:34:40;5.40;;;3.65;;
77166;SDS011;66141;7.324;79.980;2023-02-26T00:34:47;5.38;;;3.78;;
77166;SDS011;66141;7.324;79.980;2023-02-26T00:34:53;5.17;;;3.77;;
77166;SDS011;66141;7.324;79.980;2023-02-26T00:34:58;5.32;;;3.55;;
77166;SDS011;66141;7.324;79.980;2023-02-26T00:35:05;5.23;;;3.30;;
77166;SDS011;66141;7.324;79.980;2023-02-26T00:35:12;4.90;;;2.85;;
77166;SDS011;66141;7.324;79.980;2023-02-26T00:35:18;5.07;;;2.87;;
77166;SDS011;66141;7.324;79.980;2023-02-26T00:35:24;4.90;;;2.90;;
77166;SDS011;66141;7.324;79.980;2023-02-26T00:35:30;4.72;;;3.05;;
77166;SDS011;66141;7.324;79.980;2023-02-26T00:35:36;5.37;;;3.33;;
77166;SDS011;66141;7.324;79.980;2023-02-26T00:35:42;6.25;;;3.58;;
77166;SDS011;66141;7.324;79.980;2023-02-26T00:35:48;6.10;;;3.45;;
77166;SDS011;66141;7.324;79.980;2023-02-26T00:36:00;6.09;;;3.34;;
77166;SDS011;66141;7.324;79.980;2023-02-26T00:36:12;5.59;;;2.92;;
77166;SDS011;66141;7.324;79.980;2023-02-26T00:37:48;5.35;;;2.70;;
77166;SDS011;66141;7.324;79.980;2023-02-26T00:38:01;5.53;;;3.22;;
77166;SDS011;66141;7.324;79.980;2023-02-26T00:38:08;7.14;;;3.66;;
77166;SDS011;66141;7.324;79.980;2023-02-26T00:38:15;7.06;;;3.52;;
77166;SDS011;66141;7.324;79.980;2023-02-26T00:38:21;7.38;;;3.65;;
77166;SDS011;66141;7.324;79.980;2023-02-26T00:38:27;6.80;;;3.56;;
77166;SDS011;66141;7.324;79.980;2023-02-26T00:38:35;6.57;;;3.37;;
77166;SDS011;66141;7.324;79.980;2023-02-26T00:38:42;5.80;;;3.17;;
77166;SDS011;66141;7.324;79.980;2023-02-26T00:39:00;4.60;;;3.00;;
77166;SDS011;66141;7.324;79.980;2023-02-26T00:39:53;4.46;;;3.09;;
77166;SDS011;66141;7.324;79.980;2023-02-26T00:40:44;6.45;;;3.53;;
77166;SDS011;66141;7.324;79.980;2023-02-26T00:40:50;5.81;;;3.14;;
77166;SDS011;66141;7.324;79.980;2023-02-26T00:40:58;5.15;;;2.90;;
77166;SDS011;66141;7.324;79.980;2023-02-26T00:41:04;5.30;;;2.90;;
77166;SDS011;66141;7.324;79.980;2023-02-26T00:41:10;4.90;;;2.83;;
77166;SDS011;66141;7.324;79.980;2023-02-26T00:41:15;4.88;;;2.83;;
77166;SDS011;66141;7.324;79.980;2023-02-26T00:41:21;5.13;;;2.90;;
77166;SDS011;66141;7.324;79.980;2023-02-26T00:41:27;5.07;;;2.97;;
77166;SDS011;66141;7.324;79.980;2023-02-26T00:41:33;4.63;;;2.73;;
77166;SDS011;66141;7.324;79.980;2023-02-26T00:41:40;4.97;;;3.00;;
77166;SDS011;66141;7.324;79.980;2023-02-26T00:41:46;4.80;;;3.08;;
77166;SDS011;66141;7.324;79.980;2023-02-26T00:41:52;4.63;;;3.10;;
77166;SDS011;66141;7.324;79.980;2023-02-26T00:41:58;4.77;;;3.30;;